Time;durP1;ratioP1;P1;durP2;ratioP2;P2;SDS_P1;SDS_P2;PMS_P1;PMS_P2;Temp;Humidity;BMP_temperature;BMP_pressure;BME280_temperature;BME280_humidity;BME280_pressure;Samples;Min_cycle;Max_cycle;Signal;HPM_P1;HPM_P2
2023/08/03 00:00:19;;;;;;;1.95;0.40;;;;;;;;;;5056594;28;20098;-88
2023/08/03 00:02:46;;;;;;;6.95;0.70;;;;;;;;;;5073270;28;20076;-87
2023/08/03 00:05:16;;;;;;;6.53;0.57;;;;;;;;;;5072919;28;20045;-85
2023/08/03 00:07:43;;;;;;;2.45;0.50;;;;;;;;;;5073622;28;20040;-83
2023/08/03 00:10:09;;;;;;;5.13;1.80;;;;;;;;;;5073261;28;20456;-84
2023/08/03 00:12:35;;;;;;;4.60;2.05;;;;;;;;;;5057327;28;20041;-85
2023/08/03 00:15:01;;;;;;;5.35;3.83;;;;;;;;;;5077289;28;20052;-84
2023/08/03 00:17:27;;;;;;;10.30;7.53;;;;;;;;;;5078274;28;20045;-84
2023/08/03 00:19:53;;;;;;;7.72;4.60;;;;;;;;;;5078397;28;20139;-83
2023/08/03 00:22:19;;;;;;;3.47;2.10;;;;;;;;;;5060632;28;20056;-85
2023/08/03 00:24:45;;;;;;;3.78;0.80;;;;;;;;;;5078871;28;20048;-83
2023/08/03 00:27:12;;;;;;;1.98;0.30;;;;;;;;;;5078380;28;20138;-83
2023/08/03 00:29:38;;;;;;;2.55;0.30;;;;;;;;;;5077607;28;20178;-83
2023/08/03 00:32:04;;;;;;;4.13;0.30;;;;;;;;;;5077531;28;20495;-83
2023/08/03 00:34:30;;;;;;;5.53;0.32;;;;;;;;;;5075459;28;20400;-83
2023/08/03 00:36:57;;;;;;;3.08;0.30;;;;;;;;;;5077466;28;20127;-84
2023/08/03 00:39:23;;;;;;;1.95;0.40;;;;;;;;;;5078348;28;20067;-86
2023/08/03 00:41:49;;;;;;;1.67;0.22;;;;;;;;;;5078142;28;20374;-82
2023/08/03 00:44:15;;;;;;;2.33;0.30;;;;;;;;;;5077581;28;20080;-83
2023/08/03 00:46:42;;;;;;;6.20;0.30;;;;;;;;;;5077153;28;20493;-83
2023/08/03 00:49:08;;;;;;;3.47;0.43;;;;;;;;;;5077268;28;20139;-83
2023/08/03 00:51:34;;;;;;;1.23;0.22;;;;;;;;;;5077887;28;20181;-85
2023/08/03 00:54:00;;;;;;;1.80;0.25;;;;;;;;;;5076762;28;20052;-81
2023/08/03 00:56:26;;;;;;;1.92;0.38;;;;;;;;;;5077668;28;20143;-82
2023/08/03 00:58:53;;;;;;;2.22;0.20;;;;;;;;;;5076488;28;20536;-83
2023/08/03 01:01:20;;;;;;;1.05;0.25;;;;;;;;;;5076756;28;20142;-83
2023/08/03 01:03:47;;;;;;;1.35;0.35;;;;;;;;;;5076389;28;20087;-83
2023/08/03 01:06:13;;;;;;;2.70;0.30;;;;;;;;;;5076747;28;20103;-84
2023/08/03 01:08:39;;;;;;;1.67;0.30;;;;;;;;;;5076977;28;20044;-85
2023/08/03 01:11:05;;;;;;;2.33;0.20;;;;;;;;;;5075847;28;20048;-85
2023/08/03 01:13:31;;;;;;;2.78;0.30;;;;;;;;;;5076409;28;20397;-86
2023/08/03 01:15:58;;;;;;;2.80;0.35;;;;;;;;;;5077630;28;20135;-87
2023/08/03 01:18:24;;;;;;;2.25;0.25;;;;;;;;;;5059331;28;20049;-86
2023/08/03 01:20:50;;;;;;;1.83;0.30;;;;;;;;;;5077511;28;20048;-86
2023/08/03 01:23:16;;;;;;;1.33;0.20;;;;;;;;;;5076943;28;20044;-86
2023/08/03 01:25:42;;;;;;;0.63;0.20;;;;;;;;;;5074868;28;20041;-86
2023/08/03 01:28:08;;;;;;;1.13;0.20;;;;;;;;;;5058285;28;20091;-90
2023/08/03 01:30:35;;;;;;;1.95;0.20;;;;;;;;;;5076494;28;20045;-87
2023/08/03 01:33:01;;;;;;;1.48;0.30;;;;;;;;;;5075815;28;20470;-88
2023/08/03 01:35:27;;;;;;;1.48;0.20;;;;;;;;;;5076597;28;20054;-87
2023/08/03 01:37:53;;;;;;;3.10;0.20;;;;;;;;;;5076019;28;20439;-86
2023/08/03 01:40:19;;;;;;;1.20;0.30;;;;;;;;;;5077371;28;20082;-88
2023/08/03 01:42:45;;;;;;;0.73;0.17;;;;;;;;;;5077842;28;20040;-86
2023/08/03 01:45:11;;;;;;;0.40;0.20;;;;;;;;;;5059171;28;20052;-87
2023/08/03 01:47:38;;;;;;;1.38;0.20;;;;;;;;;;5076236;28;20041;-87
2023/08/03 01:50:04;;;;;;;2.55;0.20;;;;;;;;;;5076274;28;20048;-86
2023/08/03 01:52:30;;;;;;;0.95;0.30;;;;;;;;;;5059370;28;20048;-87
2023/08/03 01:54:56;;;;;;;2.40;0.20;;;;;;;;;;5076951;28;20131;-87
2023/08/03 01:57:22;;;;;;;0.98;0.20;;;;;;;;;;5076077;28;20409;-87
2023/08/03 01:59:48;;;;;;;2.72;0.20;;;;;;;;;;5075605;28;20048;-87
2023/08/03 02:02:14;;;;;;;1.90;0.30;;;;;;;;;;5075682;28;20080;-87
2023/08/03 02:04:40;;;;;;;1.65;0.20;;;;;;;;;;5075100;28;20040;-88
2023/08/03 02:07:10;;;;;;;1.00;0.40;;;;;;;;;;5075832;28;20055;-86
2023/08/03 02:09:36;;;;;;;1.95;0.30;;;;;;;;;;5076150;28;20044;-86
2023/08/03 02:12:03;;;;;;;1.45;0.40;;;;;;;;;;5074482;28;20190;-86
2023/08/03 02:14:29;;;;;;;1.42;0.30;;;;;;;;;;5058701;28;20053;-88
2023/08/03 02:16:56;;;;;;;1.70;0.40;;;;;;;;;;5076838;28;20074;-87
2023/08/03 02:19:22;;;;;;;0.95;0.30;;;;;;;;;;5075443;28;20044;-88
2023/08/03 02:21:48;;;;;;;2.47;0.68;;;;;;;;;;5076268;28;20114;-88
2023/08/03 02:24:14;;;;;;;1.73;0.40;;;;;;;;;;5076141;28;20127;-88
2023/08/03 02:26:40;;;;;;;0.82;0.43;;;;;;;;;;5076248;28;20041;-89
2023/08/03 02:29:06;;;;;;;1.15;0.52;;;;;;;;;;5043276;28;20044;-89
2023/08/03 02:31:32;;;;;;;1.33;0.60;;;;;;;;;;5059177;28;20131;-88
2023/08/03 02:33:58;;;;;;;2.47;0.77;;;;;;;;;;5075412;28;20049;-88
2023/08/03 02:36:24;;;;;;;1.70;0.90;;;;;;;;;;5075329;28;20056;-89
2023/08/03 02:38:50;;;;;;;2.53;1.15;;;;;;;;;;5075450;28;20052;-89
2023/08/03 02:41:16;;;;;;;3.10;1.17;;;;;;;;;;5076227;28;20055;-88
2023/08/03 02:43:43;;;;;;;1.38;1.27;;;;;;;;;;5076702;28;20046;-88
2023/08/03 02:46:09;;;;;;;4.25;1.67;;;;;;;;;;5059095;28;20040;-88
2023/08/03 02:48:35;;;;;;;4.65;2.03;;;;;;;;;;5074945;28;20126;-88
2023/08/03 02:51:01;;;;;;;2.35;1.85;;;;;;;;;;5074702;28;20056;-85
2023/08/03 02:53:27;;;;;;;3.17;2.08;;;;;;;;;;5073679;28;20135;-83
2023/08/03 02:55:53;;;;;;;3.78;2.10;;;;;;;;;;5074307;28;20416;-81
2023/08/03 02:58:19;;;;;;;3.55;1.95;;;;;;;;;;5074471;28;20052;-83
2023/08/03 03:00:45;;;;;;;3.55;1.77;;;;;;;;;;5074779;28;20515;-84
2023/08/03 03:03:12;;;;;;;3.45;1.92;;;;;;;;;;5072884;28;20131;-84
2023/08/03 03:05:39;;;;;;;3.72;2.47;;;;;;;;;;5073454;28;20045;-84
2023/08/03 03:08:05;;;;;;;2.58;1.85;;;;;;;;;;5073297;28;20056;-85
2023/08/03 03:10:31;;;;;;;3.97;2.95;;;;;;;;;;5073086;28;20044;-83
2023/08/03 03:12:57;;;;;;;5.50;2.72;;;;;;;;;;5073282;28;20040;-82
2023/08/03 03:15:23;;;;;;;6.63;3.08;;;;;;;;;;5072826;28;20052;-81
2023/08/03 03:17:49;;;;;;;4.10;3.45;;;;;;;;;;5073946;28;20040;-82
2023/08/03 03:20:16;;;;;;;7.60;3.33;;;;;;;;;;5073122;28;20428;-82
2023/08/03 03:22:42;;;;;;;5.55;2.58;;;;;;;;;;5072809;28;20508;-83
2023/08/03 03:25:08;;;;;;;3.00;2.47;;;;;;;;;;5073813;28;20052;-83
2023/08/03 03:27:34;;;;;;;4.38;3.33;;;;;;;;;;5074048;28;20487;-83
2023/08/03 03:30:00;;;;;;;5.35;2.75;;;;;;;;;;5073028;28;20044;-84
2023/08/03 03:32:26;;;;;;;5.85;2.35;;;;;;;;;;5072772;28;20052;-84
2023/08/03 03:34:52;;;;;;;7.47;3.20;;;;;;;;;;5055805;28;20135;-84
2023/08/03 03:37:18;;;;;;;5.57;3.25;;;;;;;;;;5073769;28;20043;-84
2023/08/03 03:39:44;;;;;;;3.97;2.67;;;;;;;;;;5072690;28;20441;-85
2023/08/03 03:42:10;;;;;;;8.20;2.60;;;;;;;;;;5073820;28;20123;-86
2023/08/03 03:44:37;;;;;;;8.98;3.17;;;;;;;;;;5056769;28;20082;-85
2023/08/03 03:47:03;;;;;;;7.50;3.25;;;;;;;;;;5072728;28;20535;-85
2023/08/03 03:49:29;;;;;;;6.53;2.47;;;;;;;;;;5072951;28;20489;-84
2023/08/03 03:51:55;;;;;;;5.50;2.72;;;;;;;;;;5074544;28;20139;-85
2023/08/03 03:54:22;;;;;;;7.57;2.75;;;;;;;;;;5073071;28;20059;-86
2023/08/03 03:56:48;;;;;;;8.10;2.63;;;;;;;;;;5055927;28;20481;-85
2023/08/03 03:59:15;;;;;;;7.30;2.88;;;;;;;;;;5072442;28;20094;-85
2023/08/03 04:01:41;;;;;;;8.23;1.92;;;;;;;;;;5055764;28;20136;-86
2023/08/03 04:04:07;;;;;;;6.68;1.88;;;;;;;;;;5072229;28;20691;-87
2023/08/03 04:06:33;;;;;;;4.75;2.40;;;;;;;;;;5074256;28;20098;-87
2023/08/03 04:08:59;;;;;;;6.40;2.20;;;;;;;;;;5074099;28;20044;-87
2023/08/03 04:11:25;;;;;;;9.95;2.78;;;;;;;;;;5074569;28;20044;-87
2023/08/03 04:13:51;;;;;;;7.68;2.40;;;;;;;;;;5058970;28;20135;-87
2023/08/03 04:16:17;;;;;;;9.43;3.28;;;;;;;;;;5076360;28;20059;-88
2023/08/03 04:18:43;;;;;;;9.27;3.15;;;;;;;;;;5074012;28;20599;-87
2023/08/03 04:21:09;;;;;;;8.10;2.72;;;;;;;;;;5073871;28;20048;-87
2023/08/03 04:23:35;;;;;;;7.22;2.70;;;;;;;;;;5073963;28;20051;-88
2023/08/03 04:26:02;;;;;;;5.45;2.95;;;;;;;;;;5057242;28;20106;-88
2023/08/03 04:28:28;;;;;;;7.72;3.10;;;;;;;;;;5073350;28;20056;-87
2023/08/03 04:30:54;;;;;;;6.05;3.80;;;;;;;;;;5073980;28;20051;-88
2023/08/03 04:33:20;;;;;;;9.40;4.03;;;;;;;;;;5073271;28;20047;-87
2023/08/03 04:35:46;;;;;;;10.88;4.30;;;;;;;;;;5073884;28;20051;-87
2023/08/03 04:38:12;;;;;;;7.68;2.90;;;;;;;;;;5056854;28;20071;-88
2023/08/03 04:40:38;;;;;;;11.48;3.80;;;;;;;;;;5074418;28;20048;-89
2023/08/03 04:43:05;;;;;;;9.57;3.05;;;;;;;;;;5057009;28;20392;-89
2023/08/03 04:45:31;;;;;;;6.72;2.80;;;;;;;;;;5074599;28;20052;-89
2023/08/03 04:47:57;;;;;;;9.13;4.05;;;;;;;;;;5073558;28;20063;-88
2023/08/03 04:50:23;;;;;;;8.93;2.85;;;;;;;;;;5074726;28;20053;-89
2023/08/03 04:52:49;;;;;;;8.68;2.85;;;;;;;;;;5073940;28;20087;-89
2023/08/03 04:55:15;;;;;;;6.60;2.92;;;;;;;;;;5075248;28;20040;-88
2023/08/03 04:57:41;;;;;;;8.45;3.58;;;;;;;;;;5056598;28;20044;-89
2023/08/03 05:00:08;;;;;;;6.50;3.17;;;;;;;;;;5076126;28;20051;-89
2023/08/03 05:02:34;;;;;;;5.20;3.17;;;;;;;;;;5077391;28;20053;-89
2023/08/03 05:05:00;;;;;;;8.40;3.92;;;;;;;;;;5076629;28;20049;-89
2023/08/03 05:07:27;;;;;;;8.07;3.78;;;;;;;;;;5060466;28;20142;-88
2023/08/03 05:09:54;;;;;;;10.05;3.30;;;;;;;;;;5060403;28;20055;-88
2023/08/03 05:12:20;;;;;;;10.13;4.32;;;;;;;;;;5076677;28;20048;-88
2023/08/03 05:14:46;;;;;;;6.75;4.10;;;;;;;;;;5076793;28;20052;-89
2023/08/03 05:17:12;;;;;;;7.90;3.85;;;;;;;;;;5077146;28;20457;-88
2023/08/03 05:19:38;;;;;;;6.68;3.97;;;;;;;;;;5077685;28;20045;-88
2023/08/03 05:22:04;;;;;;;11.43;4.55;;;;;;;;;;5077339;28;20044;-88
2023/08/03 05:24:30;;;;;;;10.88;4.28;;;;;;;;;;5077128;28;20049;-89
2023/08/03 05:26:56;;;;;;;5.55;3.75;;;;;;;;;;5059903;28;20098;-89
2023/08/03 05:29:22;;;;;;;6.53;3.85;;;;;;;;;;5077407;28;20065;-88
2023/08/03 05:31:49;;;;;;;8.95;4.38;;;;;;;;;;5077838;28;20044;-88
2023/08/03 05:34:15;;;;;;;12.82;4.35;;;;;;;;;;5076353;28;20477;-88
2023/08/03 05:36:41;;;;;;;9.98;5.10;;;;;;;;;;5077104;28;20123;-88
2023/08/03 05:39:11;;;;;;;9.57;4.15;;;;;;;;;;5076640;28;20049;-88
2023/08/03 05:41:37;;;;;;;7.85;4.72;;;;;;;;;;5076763;28;20055;-89
2023/08/03 05:44:03;;;;;;;14.20;4.88;;;;;;;;;;5076426;28;20093;-89
2023/08/03 05:46:32;;;;;;;7.65;4.32;;;;;;;;;;5076727;28;20044;-89
2023/08/03 05:48:58;;;;;;;12.55;5.68;;;;;;;;;;5060353;28;20044;-89
2023/08/03 05:51:25;;;;;;;10.73;5.68;;;;;;;;;;5076493;28;20090;-89
2023/08/03 05:53:52;;;;;;;9.43;5.25;;;;;;;;;;5076194;28;20052;-88
2023/08/03 05:56:20;;;;;;;8.93;5.22;;;;;;;;;;5076332;28;20092;-89
2023/08/03 05:58:46;;;;;;;8.48;5.43;;;;;;;;;;5077352;28;20056;-89
2023/08/03 06:01:12;;;;;;;8.98;5.20;;;;;;;;;;5076337;28;20048;-89
2023/08/03 06:03:41;;;;;;;10.82;5.93;;;;;;;;;;5075430;28;20459;-88
2023/08/03 06:06:10;;;;;;;10.60;6.38;;;;;;;;;;5077035;28;20048;-88
2023/08/03 06:08:36;;;;;;;12.10;6.53;;;;;;;;;;5076489;28;20078;-89
2023/08/03 06:11:03;;;;;;;9.98;6.30;;;;;;;;;;5076788;28;20354;-89
2023/08/03 06:13:34;;;;;;;11.55;6.38;;;;;;;;;;5077312;28;20081;-88
2023/08/03 06:16:03;;;;;;;7.18;6.13;;;;;;;;;;5076613;28;20131;-88
2023/08/03 06:18:32;;;;;;;9.90;6.88;;;;;;;;;;5075122;28;20045;-88
2023/08/03 06:20:58;;;;;;;8.80;5.88;;;;;;;;;;5058508;28;20059;-89
2023/08/03 06:23:27;;;;;;;9.45;5.63;;;;;;;;;;5075990;28;20135;-89
2023/08/03 06:25:55;;;;;;;10.73;6.05;;;;;;;;;;5075628;28;20052;-89
2023/08/03 06:28:22;;;;;;;9.05;5.80;;;;;;;;;;5076062;28;20056;-89
2023/08/03 06:30:49;;;;;;;9.45;5.55;;;;;;;;;;5076749;28;20048;-89
2023/08/03 06:33:16;;;;;;;11.02;5.70;;;;;;;;;;5075404;28;20048;-90
2023/08/03 06:35:43;;;;;;;7.47;5.68;;;;;;;;;;5076936;28;20047;-90
2023/08/03 06:38:12;;;;;;;8.85;5.60;;;;;;;;;;5075611;28;20091;-90
2023/08/03 06:40:40;;;;;;;11.88;5.93;;;;;;;;;;5075791;28;20076;-89
2023/08/03 06:43:06;;;;;;;9.38;6.22;;;;;;;;;;5075269;28;20388;-89
2023/08/03 06:45:33;;;;;;;6.90;5.22;;;;;;;;;;5077229;28;20056;-90
2023/08/03 06:47:59;;;;;;;10.45;5.95;;;;;;;;;;5075832;28;20052;-90
2023/08/03 06:50:26;;;;;;;2.42;0.60;;;;;;;;;;5059427;28;20135;-89
2023/08/03 06:52:52;;;;;;;11.82;4.35;;;;;;;;;;5058798;28;20048;-90
2023/08/03 06:55:18;;;;;;;2.95;0.40;;;;;;;;;;5075411;28;20052;-89
2023/08/03 06:57:45;;;;;;;1.05;0.40;;;;;;;;;;5074620;28;20140;-90
2023/08/03 07:00:11;;;;;;;9.90;4.25;;;;;;;;;;5075516;28;20401;-89
2023/08/03 07:02:38;;;;;;;8.88;4.78;;;;;;;;;;5058854;28;20045;-90
2023/08/03 07:05:04;;;;;;;15.57;6.35;;;;;;;;;;5063534;28;20048;-90
2023/08/03 07:07:30;;;;;;;9.00;5.00;;;;;;;;;;5076998;28;20392;-90
2023/08/03 07:09:56;;;;;;;10.68;4.78;;;;;;;;;;5076859;28;20040;-89
2023/08/03 07:12:23;;;;;;;10.70;4.97;;;;;;;;;;5079430;28;20044;-89
2023/08/03 07:14:49;;;;;;;7.82;4.50;;;;;;;;;;5076020;28;20045;-89
2023/08/03 07:17:15;;;;;;;7.65;4.90;;;;;;;;;;5075229;28;20043;-89
2023/08/03 07:19:41;;;;;;;6.70;3.90;;;;;;;;;;5059369;28;20040;-88
2023/08/03 07:22:08;;;;;;;6.97;4.63;;;;;;;;;;5060488;28;20056;-89
2023/08/03 07:24:35;;;;;;;10.32;5.03;;;;;;;;;;5079605;28;20052;-89
2023/08/03 07:27:01;;;;;;;10.55;4.70;;;;;;;;;;5078062;28;20552;-89
2023/08/03 07:29:31;;;;;;;8.88;3.78;;;;;;;;;;5076734;28;20380;-88
2023/08/03 07:31:57;;;;;;;6.85;4.28;;;;;;;;;;5079374;28;20048;-88
2023/08/03 07:34:23;;;;;;;5.95;3.42;;;;;;;;;;5073629;28;20049;-88
2023/08/03 07:36:56;;;;;;;9.60;3.42;;;;;;;;;;5075425;28;20045;-88
2023/08/03 07:39:22;;;;;;;6.68;3.15;;;;;;;;;;5074400;28;20094;-88
2023/08/03 07:41:48;;;;;;;7.07;3.03;;;;;;;;;;5073692;28;20135;-88
2023/08/03 07:44:20;;;;;;;5.85;2.55;;;;;;;;;;5076987;28;20056;-87
2023/08/03 07:46:47;;;;;;;3.58;2.28;;;;;;;;;;5075757;28;20083;-88
2023/08/03 07:49:13;;;;;;;5.75;1.70;;;;;;;;;;5076213;28;20097;-89
2023/08/03 07:51:39;;;;;;;3.90;1.80;;;;;;;;;;5074480;28;20052;-89
2023/08/03 07:54:06;;;;;;;6.18;1.77;;;;;;;;;;5076346;28;20044;-88
2023/08/03 07:56:32;;;;;;;3.67;1.25;;;;;;;;;;5059825;28;20052;-89
2023/08/03 07:59:00;;;;;;;4.38;1.70;;;;;;;;;;5075716;28;20092;-89
2023/08/03 08:01:26;;;;;;;4.00;0.80;;;;;;;;;;5075334;28;20045;-89
2023/08/03 08:03:52;;;;;;;4.68;1.20;;;;;;;;;;5057817;28;20389;-89
2023/08/03 08:06:19;;;;;;;5.78;0.82;;;;;;;;;;5052227;28;20481;-90
2023/08/03 08:08:50;;;;;;;4.47;0.70;;;;;;;;;;5054289;28;20056;-89
2023/08/03 08:11:17;;;;;;;4.15;1.13;;;;;;;;;;5071042;28;20133;-89
2023/08/03 08:13:43;;;;;;;4.03;0.65;;;;;;;;;;5073307;28;20149;-88
2023/08/03 08:16:11;;;;;;;7.68;1.08;;;;;;;;;;5055474;28;20135;-89
2023/08/03 08:18:37;;;;;;;4.60;1.13;;;;;;;;;;5075173;28;20063;-89
2023/08/03 08:21:07;;;;;;;5.00;0.65;;;;;;;;;;5073718;28;20051;-87
2023/08/03 08:23:33;;;;;;;3.10;0.73;;;;;;;;;;5073899;28;20063;-89
2023/08/03 08:26:00;;;;;;;3.15;0.52;;;;;;;;;;5074803;28;20056;-87
2023/08/03 08:28:26;;;;;;;4.30;0.43;;;;;;;;;;5073038;28;20090;-86
2023/08/03 08:30:52;;;;;;;4.43;0.65;;;;;;;;;;5074328;28;20079;-86
2023/08/03 08:33:19;;;;;;;5.43;0.90;;;;;;;;;;5073168;28;20442;-87
2023/08/03 08:35:46;;;;;;;4.68;0.73;;;;;;;;;;5077087;28;20045;-87
2023/08/03 08:38:12;;;;;;;4.22;0.60;;;;;;;;;;5076634;28;20084;-86
2023/08/03 08:40:39;;;;;;;4.20;0.98;;;;;;;;;;5077066;28;20044;-87
2023/08/03 08:43:06;;;;;;;6.95;1.70;;;;;;;;;;5076857;28;20098;-88
2023/08/03 08:45:33;;;;;;;4.05;1.02;;;;;;;;;;5077323;28;20036;-88
2023/08/03 08:47:59;;;;;;;5.05;0.82;;;;;;;;;;5077427;28;20088;-89
2023/08/03 08:50:25;;;;;;;5.43;0.90;;;;;;;;;;5078258;28;20499;-88
2023/08/03 08:52:52;;;;;;;2.58;0.47;;;;;;;;;;5043505;28;20056;-89
2023/08/03 08:55:20;;;;;;;3.42;0.50;;;;;;;;;;5077002;28;20484;-89
2023/08/03 08:57:46;;;;;;;5.10;0.52;;;;;;;;;;5076744;28;20063;-90
2023/08/03 09:00:13;;;;;;;1.25;0.30;;;;;;;;;;5060509;28;20472;-90
2023/08/03 09:02:39;;;;;;;3.10;0.32;;;;;;;;;;5061072;28;20059;-90
2023/08/03 09:05:18;;;;;;;2.83;0.40;;;;;;;;;;5060269;28;20048;-90
2023/08/03 09:07:45;;;;;;;2.17;0.20;;;;;;;;;;5060317;28;20044;-90
2023/08/03 09:10:11;;;;;;;1.02;0.30;;;;;;;;;;5060272;28;20091;-89
2023/08/03 09:12:39;;;;;;;3.00;0.20;;;;;;;;;;5043398;28;20062;-87
2023/08/03 09:15:05;;;;;;;2.88;0.20;;;;;;;;;;5059604;28;20404;-88
2023/08/03 09:17:32;;;;;;;1.63;0.20;;;;;;;;;;5059638;28;20044;-88
2023/08/03 09:19:58;;;;;;;3.20;0.20;;;;;;;;;;5076696;28;20083;-87
2023/08/03 09:22:25;;;;;;;1.63;0.17;;;;;;;;;;5063621;28;20055;-89
2023/08/03 09:25:07;;;;;;;1.35;0.13;;;;;;;;;;5060328;28;20052;-89
2023/08/03 09:27:34;;;;;;;1.48;0.15;;;;;;;;;;5081135;28;20147;-89
2023/08/03 09:30:01;;;;;;;1.42;0.20;;;;;;;;;;5059789;28;20511;-90
2023/08/03 09:32:34;;;;;;;1.35;0.13;;;;;;;;;;5076590;28;20044;-89
2023/08/03 09:35:15;;;;;;;2.57;0.20;;;;;;;;;;5060179;28;20047;-89
2023/08/03 09:37:41;;;;;;;1.20;0.20;;;;;;;;;;5076465;28;20464;-89
2023/08/03 09:40:08;;;;;;;3.13;0.20;;;;;;;;;;5076700;28;20025;-89
2023/08/03 09:42:34;;;;;;;1.40;0.20;;;;;;;;;;5075776;28;20399;-89
2023/08/03 09:45:01;;;;;;;1.20;0.20;;;;;;;;;;5075392;28;20094;-89
2023/08/03 09:47:27;;;;;;;1.33;0.20;;;;;;;;;;5076242;28;20052;-89
2023/08/03 09:49:54;;;;;;;2.72;0.40;;;;;;;;;;5075886;28;20056;-89
2023/08/03 09:52:26;;;;;;;2.65;0.20;;;;;;;;;;5076477;28;20373;-90
2023/08/03 09:54:58;;;;;;;1.80;0.20;;;;;;;;;;5076150;28;20511;-89
2023/08/03 09:57:25;;;;;;;1.30;0.10;;;;;;;;;;5075216;28;20074;-89
2023/08/03 09:59:58;;;;;;;2.95;0.20;;;;;;;;;;5077338;28;20350;-89
2023/08/03 10:02:27;;;;;;;1.67;0.20;;;;;;;;;;5076470;28;20048;-89
2023/08/03 10:04:57;;;;;;;0.90;0.20;;;;;;;;;;5075901;28;20077;-89
2023/08/03 10:07:25;;;;;;;1.15;0.30;;;;;;;;;;5059682;28;20366;-89
2023/08/03 10:09:54;;;;;;;1.55;0.35;;;;;;;;;;5076278;28;20365;-89
2023/08/03 10:12:22;;;;;;;1.50;0.20;;;;;;;;;;5059497;28;20045;-90
2023/08/03 10:14:51;;;;;;;0.43;0.10;;;;;;;;;;5075938;28;20542;-89
2023/08/03 10:17:18;;;;;;;1.58;0.10;;;;;;;;;;5075863;28;20119;-90
2023/08/03 10:19:44;;;;;;;1.80;0.10;;;;;;;;;;5075773;28;20052;-89
2023/08/03 10:22:10;;;;;;;1.25;0.20;;;;;;;;;;5042901;28;20055;-89
2023/08/03 10:24:36;;;;;;;2.67;0.15;;;;;;;;;;5075994;28;20045;-89
2023/08/03 10:27:17;;;;;;;0.82;0.10;;;;;;;;;;5075535;28;20071;-89
2023/08/03 10:29:56;;;;;;;0.75;0.40;;;;;;;;;;5075890;28;20048;-89
2023/08/03 10:32:27;;;;;;;1.52;0.10;;;;;;;;;;5075104;28;20048;-89
2023/08/03 10:34:58;;;;;;;1.50;0.20;;;;;;;;;;5075312;28;20056;-88
2023/08/03 10:37:24;;;;;;;2.03;0.20;;;;;;;;;;5074860;28;20135;-88
2023/08/03 10:39:54;;;;;;;1.65;0.20;;;;;;;;;;5058696;28;20088;-89
2023/08/03 10:42:22;;;;;;;3.35;0.10;;;;;;;;;;5075120;28;20049;-89
2023/08/03 10:44:48;;;;;;;1.75;0.10;;;;;;;;;;5075417;28;20044;-89
2023/08/03 10:47:21;;;;;;;1.35;0.10;;;;;;;;;;5075889;28;20047;-88
2023/08/03 10:49:48;;;;;;;1.17;0.20;;;;;;;;;;5075604;28;20080;-89
2023/08/03 10:52:22;;;;;;;2.97;0.20;;;;;;;;;;5075861;28;20056;-89
2023/08/03 10:54:48;;;;;;;1.92;0.28;;;;;;;;;;5075135;28;20097;-89
2023/08/03 10:57:16;;;;;;;1.38;0.10;;;;;;;;;;5056539;28;20056;-89
2023/08/03 10:59:46;;;;;;;1.77;0.20;;;;;;;;;;5076559;28;20095;-89
2023/08/03 11:02:21;;;;;;;1.27;0.10;;;;;;;;;;5075379;28;20145;-89
2023/08/03 11:04:50;;;;;;;2.00;0.40;;;;;;;;;;5059848;28;20502;-88
2023/08/03 11:07:17;;;;;;;2.78;0.22;;;;;;;;;;5077288;28;20412;-89
2023/08/03 11:09:48;;;;;;;0.93;0.10;;;;;;;;;;5077185;28;20056;-89
2023/08/03 11:12:16;;;;;;;1.42;0.10;;;;;;;;;;5077450;28;20057;-88
2023/08/03 11:14:43;;;;;;;2.33;0.20;;;;;;;;;;5059531;28;20135;-89
2023/08/03 11:17:10;;;;;;;2.28;0.30;;;;;;;;;;5059506;28;20052;-89
2023/08/03 11:19:39;;;;;;;1.55;0.28;;;;;;;;;;5057967;28;20095;-90
2023/08/03 11:22:06;;;;;;;2.50;0.20;;;;;;;;;;5059038;28;20488;-90
2023/08/03 11:24:32;;;;;;;4.13;0.57;;;;;;;;;;5057988;28;20048;-89
2023/08/03 11:26:59;;;;;;;2.33;0.20;;;;;;;;;;5074459;28;20045;-89
2023/08/03 11:29:25;;;;;;;1.85;0.20;;;;;;;;;;5057477;28;20131;-89
2023/08/03 11:31:52;;;;;;;1.92;0.10;;;;;;;;;;5074194;28;20074;-89
2023/08/03 11:34:18;;;;;;;1.20;0.20;;;;;;;;;;5057359;28;20044;-90
2023/08/03 11:36:48;;;;;;;2.70;0.30;;;;;;;;;;5074571;28;20044;-90
2023/08/03 11:39:14;;;;;;;3.53;0.50;;;;;;;;;;5075256;28;20079;-90
2023/08/03 11:41:41;;;;;;;2.45;0.20;;;;;;;;;;5057533;28;20041;-89
2023/08/03 11:44:07;;;;;;;2.58;0.22;;;;;;;;;;5074124;28;20040;-90
2023/08/03 11:46:33;;;;;;;1.30;0.20;;;;;;;;;;5075420;28;20052;-90
2023/08/03 11:49:01;;;;;;;3.65;0.57;;;;;;;;;;5073971;28;20562;-90
2023/08/03 11:51:48;;;;;;;2.10;0.63;;;;;;;;;;5075415;28;20056;-90
2023/08/03 11:54:24;;;;;;;9.70;0.30;;;;;;;;;;5074271;28;20044;-90
2023/08/03 11:56:50;;;;;;;3.28;0.30;;;;;;;;;;5074098;28;20060;-90
2023/08/03 11:59:16;;;;;;;1.70;0.25;;;;;;;;;;5074085;28;20059;-90
2023/08/03 12:01:43;;;;;;;2.35;0.30;;;;;;;;;;5074615;28;20055;-90
2023/08/03 12:04:10;;;;;;;1.77;0.20;;;;;;;;;;5057614;28;20052;-90
2023/08/03 12:06:45;;;;;;;2.35;0.20;;;;;;;;;;5073875;28;20045;-90
2023/08/03 12:09:17;;;;;;;0.60;0.10;;;;;;;;;;5073631;28;20045;-90
2023/08/03 12:11:43;;;;;;;2.97;0.10;;;;;;;;;;5072987;28;20088;-90
2023/08/03 12:14:10;;;;;;;0.68;0.15;;;;;;;;;;5071219;28;20553;-90
2023/08/03 12:16:39;;;;;;;0.77;0.10;;;;;;;;;;5074054;28;20052;-90
2023/08/03 12:19:08;;;;;;;1.55;0.30;;;;;;;;;;5074388;28;20037;-90
2023/08/03 12:21:38;;;;;;;1.45;0.20;;;;;;;;;;5074236;28;20055;-90
2023/08/03 12:24:07;;;;;;;1.40;0.20;;;;;;;;;;5074520;28;20052;-90
2023/08/03 12:26:34;;;;;;;1.75;0.10;;;;;;;;;;5074293;28;20084;-89
2023/08/03 12:29:01;;;;;;;2.80;0.30;;;;;;;;;;5057053;28;20051;-90
2023/08/03 12:31:29;;;;;;;2.10;0.20;;;;;;;;;;5057435;28;20087;-90
2023/08/03 12:33:56;;;;;;;3.08;0.35;;;;;;;;;;5072739;28;20166;-89
2023/08/03 12:36:22;;;;;;;2.17;0.40;;;;;;;;;;5073150;28;20053;-89
2023/08/03 12:38:48;;;;;;;1.92;0.20;;;;;;;;;;5073921;28;20554;-89
2023/08/03 12:41:14;;;;;;;2.47;0.30;;;;;;;;;;5073465;28;20062;-89
2023/08/03 12:43:41;;;;;;;2.33;0.38;;;;;;;;;;5073333;28;20568;-89
2023/08/03 12:46:07;;;;;;;3.80;0.40;;;;;;;;;;5057604;28;20048;-89
2023/08/03 12:48:33;;;;;;;1.92;0.20;;;;;;;;;;5057701;28;20252;-89
2023/08/03 12:50:59;;;;;;;1.92;0.40;;;;;;;;;;5073688;28;20575;-89
2023/08/03 12:53:26;;;;;;;3.78;0.30;;;;;;;;;;5073159;28;20515;-89
2023/08/03 12:55:52;;;;;;;7.38;0.47;;;;;;;;;;5056927;28;20049;-88
2023/08/03 12:58:18;;;;;;;2.55;0.35;;;;;;;;;;5073776;28;20052;-89
2023/08/03 13:00:45;;;;;;;2.65;0.50;;;;;;;;;;5073228;28;20087;-89
2023/08/03 13:03:11;;;;;;;3.30;0.30;;;;;;;;;;5074032;28;20045;-89
2023/08/03 13:05:38;;;;;;;3.50;0.30;;;;;;;;;;5055952;28;20142;-89
2023/08/03 13:08:04;;;;;;;4.00;0.35;;;;;;;;;;5073206;28;20405;-89
2023/08/03 13:10:30;;;;;;;1.63;0.40;;;;;;;;;;5057218;28;20044;-88
2023/08/03 13:12:56;;;;;;;1.35;0.25;;;;;;;;;;5072985;28;20052;-89
2023/08/03 13:15:22;;;;;;;3.00;0.40;;;;;;;;;;5072765;28;20074;-89
2023/08/03 13:17:48;;;;;;;2.03;0.30;;;;;;;;;;5056326;28;20493;-89
2023/08/03 13:20:14;;;;;;;2.08;0.40;;;;;;;;;;5056954;28;20087;-89
2023/08/03 13:22:41;;;;;;;2.55;0.25;;;;;;;;;;5076444;28;20504;-89
2023/08/03 13:25:07;;;;;;;5.55;0.55;;;;;;;;;;5076428;28;20047;-89
2023/08/03 13:27:33;;;;;;;4.20;0.47;;;;;;;;;;5060260;28;20044;-89
2023/08/03 13:29:59;;;;;;;2.83;0.30;;;;;;;;;;5058675;28;20040;-91
2023/08/03 13:32:25;;;;;;;2.55;0.20;;;;;;;;;;5080491;28;20049;-89
2023/08/03 13:34:51;;;;;;;1.73;0.20;;;;;;;;;;5072673;28;20487;-89
2023/08/03 13:37:17;;;;;;;2.13;0.20;;;;;;;;;;5041406;28;20101;-88
2023/08/03 13:39:44;;;;;;;2.50;0.20;;;;;;;;;;5070886;28;20511;-87
2023/08/03 13:42:10;;;;;;;1.90;0.25;;;;;;;;;;5058433;28;20136;-89
2023/08/03 13:44:36;;;;;;;5.10;0.65;;;;;;;;;;5072778;28;20056;-89
2023/08/03 13:47:03;;;;;;;2.20;0.47;;;;;;;;;;5041162;28;20037;-87
2023/08/03 13:49:29;;;;;;;2.05;0.30;;;;;;;;;;5050183;28;20044;-88
2023/08/03 13:51:55;;;;;;;3.08;0.40;;;;;;;;;;5060499;28;20032;-89
2023/08/03 13:54:22;;;;;;;3.08;0.28;;;;;;;;;;5076942;28;20051;-88
2023/08/03 13:56:54;;;;;;;3.15;0.32;;;;;;;;;;5077387;28;20131;-88
2023/08/03 13:59:27;;;;;;;2.35;0.20;;;;;;;;;;5078312;28;20045;-89
2023/08/03 14:01:53;;;;;;;3.97;0.20;;;;;;;;;;5045636;28;20045;-87
2023/08/03 14:04:21;;;;;;;2.90;0.20;;;;;;;;;;5090275;28;20040;-89
2023/08/03 14:06:47;;;;;;;1.35;0.25;;;;;;;;;;5041681;28;20041;-90
2023/08/03 14:09:13;;;;;;;2.05;0.20;;;;;;;;;;5056458;28;20485;-89
2023/08/03 14:11:39;;;;;;;3.83;0.22;;;;;;;;;;5058025;28;20075;-89
2023/08/03 14:14:08;;;;;;;22.98;5.63;;;;;;;;;;5058043;28;20400;-90
2023/08/03 14:16:34;;;;;;;2.65;0.40;;;;;;;;;;5056720;28;20128;-88
2023/08/03 14:19:00;;;;;;;2.38;0.38;;;;;;;;;;5055781;28;20049;-87
2023/08/03 14:21:26;;;;;;;3.35;0.57;;;;;;;;;;5055449;28;20132;-89
2023/08/03 14:23:52;;;;;;;2.90;1.42;;;;;;;;;;5038889;28;20076;-89
2023/08/03 14:26:18;;;;;;;2.63;0.70;;;;;;;;;;5055881;28;20057;-88
2023/08/03 14:28:44;;;;;;;5.68;0.88;;;;;;;;;;5039019;28;20060;-88
2023/08/03 14:31:11;;;;;;;6.35;0.70;;;;;;;;;;5055817;28;20053;-89
2023/08/03 14:33:37;;;;;;;24.73;22.63;;;;;;;;;;5055348;28;20537;-88
2023/08/03 14:36:05;;;;;;;2.97;0.55;;;;;;;;;;5057032;28;20048;-89
2023/08/03 14:38:31;;;;;;;4.90;0.60;;;;;;;;;;5056600;28;20048;-88
2023/08/03 14:40:57;;;;;;;4.35;0.77;;;;;;;;;;5055357;28;20059;-88